Time;durP1;ratioP1;P1;durP2;ratioP2;P2;SDS_P1;SDS_P2;PMS_P1;PMS_P2;Temp;Humidity;BMP_temperature;BMP_pressure;BME280_temperature;BME280_humidity;BME280_pressure;Samples;Min_cycle;Max_cycle;Signal;HPM_P1;HPM_P2
2022/06/13 09:09:29;;;;;;;6.70;4.20;;;;;;;19.05;67.91;98573.00;105198;1309;546546;-80
2022/06/13 09:12:05;;;;;;;5.50;3.70;;;;;;;19.15;68.46;98569.76;107856;1284;22703;-80
2022/06/13 09:14:34;;;;;;;5.40;3.40;;;;;;;19.28;69.28;98566.20;107799;1284;22568;-80
2022/06/13 09:17:16;;;;;;;4.40;3.20;;;;;;;19.35;69.92;98565.21;107795;1284;22738;-80
2022/06/13 09:19:54;;;;;;;6.50;3.60;;;;;;;19.41;70.62;98564.30;107781;1284;22561;-80
2022/06/13 09:22:30;;;;;;;8.50;4.30;;;;;;;19.52;70.83;98555.53;107639;1284;292149;-79
2022/06/13 09:24:56;;;;;;;6.50;4.30;;;;;;;19.59;70.63;98550.98;108084;1284;22623;-80
2022/06/13 09:27:25;;;;;;;6.00;4.90;;;;;;;19.67;70.21;98541.64;108083;1284;22552;-81
2022/06/13 09:30:06;;;;;;;7.20;4.70;;;;;;;19.75;69.89;98537.80;108721;1271;22547;-78
2022/06/13 09:32:43;;;;;;;6.10;4.80;;;;;;;19.79;69.64;98538.90;108683;1271;22554;-79
2022/06/13 09:35:18;;;;;;;8.40;5.20;;;;;;;19.83;69.50;98539.61;108674;1271;22682;-80
2022/06/13 09:37:53;;;;;;;8.60;5.20;;;;;;;19.88;69.80;98547.54;108556;1271;22687;-80
2022/06/13 09:40:29;;;;;;;7.30;5.30;;;;;;;19.92;70.15;98550.91;108670;1271;22556;-78
2022/06/13 09:43:46;;;;;;;6.60;5.50;;;;;;;19.90;70.38;98553.71;108655;1270;23768;-78
2022/06/13 09:46:25;;;;;;;6.00;5.10;;;;;;;19.86;70.07;98556.34;108398;1277;22546;-79
2022/06/13 09:49:16;;;;;;;7.50;4.50;;;;;;;19.94;69.96;98549.55;108414;1277;22564;-81
2022/06/13 09:52:00;;;;;;;7.00;4.10;;;;;;;20.12;69.31;98550.02;108417;1277;24260;-80
2022/06/13 09:54:33;;;;;;;7.30;3.80;;;;;;;20.26;68.95;98550.23;108409;1277;22644;-83
2022/06/13 09:57:09;;;;;;;9.80;4.60;;;;;;;20.44;69.14;98553.48;108447;1277;22531;-80
2022/06/13 09:59:57;;;;;;;8.20;4.70;;;;;;;20.44;69.49;98573.80;108438;1277;22552;-79
2022/06/13 10:02:34;;;;;;;8.20;4.80;;;;;;;20.47;69.23;98579.46;108437;1277;22693;-80
2022/06/13 10:05:15;;;;;;;7.60;4.70;;;;;;;20.46;68.87;98587.91;108426;1276;24816;-83
2022/06/13 10:07:56;;;;;;;8.80;4.90;;;;;;;20.33;68.58;98584.20;108414;1276;22598;-80
2022/06/13 10:10:47;;;;;;;8.90;4.90;;;;;;;20.23;68.52;98576.42;108396;1277;22568;-80
2022/06/13 10:13:38;;;;;;;10.80;5.10;;;;;;;20.18;68.91;98572.07;108473;1277;22526;-79
2022/06/13 10:16:18;;;;;;;8.00;5.10;;;;;;;20.08;69.25;98566.46;108402;1277;22548;-80
2022/06/13 10:18:45;;;;;;;6.10;4.90;;;;;;;20.03;69.14;98570.72;108268;1277;22561;-80
2022/06/13 10:21:36;;;;;;;6.50;4.90;;;;;;;19.96;69.27;98569.17;108328;1277;22559;-82
2022/06/13 10:24:24;;;;;;;6.50;4.90;;;;;;;19.92;68.98;98569.90;108588;1271;22574;-79
2022/06/13 10:27:17;;;;;;;7.50;5.20;;;;;;;19.90;69.00;98567.89;108668;1271;22535;-80
2022/06/13 10:29:59;;;;;;;7.10;5.00;;;;;;;19.87;69.29;98562.13;108623;1270;23925;-80
2022/06/13 10:32:55;;;;;;;8.10;5.50;;;;;;;19.85;69.67;98561.77;108637;1271;22578;-79
2022/06/13 10:35:24;;;;;;;7.50;5.00;;;;;;;19.86;69.65;98566.27;108667;1271;22531;-80
2022/06/13 10:38:20;;;;;;;7.80;5.10;;;;;;;19.84;69.45;98566.13;108667;1271;22543;-80
2022/06/13 10:40:47;;;;;;;8.00;5.20;;;;;;;19.85;69.36;98563.95;108575;1271;22548;-80
2022/06/13 10:43:14;;;;;;;10.10;5.10;;;;;;;19.89;69.38;98562.98;108669;1271;22632;-79
2022/06/13 10:45:42;;;;;;;7.60;4.30;;;;;;;19.98;69.40;98558.05;108613;1271;22590;-79
2022/06/13 10:48:17;;;;;;;4.90;3.70;;;;;;;20.07;69.74;98558.91;108696;1271;22617;-80
2022/06/13 10:50:52;;;;;;;12.40;4.10;;;;;;;20.17;69.70;98557.38;108663;1270;22553;-80
2022/06/13 10:53:37;;;;;;;5.10;3.50;;;;;;;20.21;69.43;98567.88;108617;1270;22540;-80
2022/06/13 10:56:10;;;;;;;5.40;3.40;;;;;;;20.19;69.10;98571.48;108645;1271;22547;-80
2022/06/13 10:58:46;;;;;;;5.90;3.50;;;;;;;20.13;68.85;98575.86;108670;1271;24359;-80
2022/06/13 11:01:22;;;;;;;5.60;3.40;;;;;;;20.06;68.09;98566.98;108670;1271;22623;-80
2022/06/13 11:04:18;;;;;;;6.60;3.40;;;;;;;20.07;67.96;98564.27;108420;1270;22721;-79
2022/06/13 11:06:48;;;;;;;5.40;3.30;;;;;;;20.18;67.72;98566.33;108422;1271;22534;-79
2022/06/13 11:09:42;;;;;;;6.50;3.10;;;;;;;20.30;67.31;98565.93;108501;1270;22539;-78
2022/06/13 11:12:23;;;;;;;5.30;3.00;;;;;;;20.41;67.46;98570.89;108507;1271;22572;-81
2022/06/13 11:24:00;;;;;;;5.20;3.20;;;;;;;20.91;64.54;98570.33;108530;1270;26274;-81
2022/06/13 11:29:23;;;;;;;29.80;12.60;;;;;;;21.65;62.98;98558.36;108462;1271;22605;-78
2022/06/13 11:31:56;;;;;;;13.60;6.00;;;;;;;22.07;62.76;98558.48;108653;1269;22567;-79
2022/06/13 11:34:29;;;;;;;6.50;3.10;;;;;;;22.49;62.20;98558.59;108694;1269;22556;-79
2022/06/13 11:37:18;;;;;;;6.30;2.70;;;;;;;23.01;61.26;98553.55;108695;1270;23962;-79
2022/06/13 11:39:48;;;;;;;5.20;3.00;;;;;;;23.47;59.13;98554.80;108684;1271;22656;-79
2022/06/13 11:42:16;;;;;;;4.70;2.50;;;;;;;23.78;57.97;98557.55;108714;1270;22716;-80
2022/06/13 11:44:50;;;;;;;4.70;2.70;;;;;;;23.89;56.53;98554.49;108625;1269;22670;-80
2022/06/13 11:47:18;;;;;;;4.60;2.90;;;;;;;23.89;56.11;98552.27;108708;1270;22532;-80
2022/06/13 11:49:48;;;;;;;3.90;2.50;;;;;;;23.97;55.04;98543.51;108724;1271;22526;-81
2022/06/13 11:55:28;;;;;;;3.20;2.50;;;;;;;24.24;54.48;98537.48;108772;1271;22538;-81
2022/06/13 11:58:17;;;;;;;4.00;2.60;;;;;;;24.49;54.49;98533.68;108793;1271;22642;-81
2022/06/13 12:00:52;;;;;;;5.10;3.30;;;;;;;24.75;53.93;98533.90;108733;1271;26011;-80
2022/06/13 12:03:23;;;;;;;5.60;2.70;;;;;;;24.77;54.17;98535.70;108708;1271;22599;-80
2022/06/13 12:05:56;;;;;;;5.60;3.10;;;;;;;24.64;54.14;98539.74;108748;1271;22536;-80
2022/06/13 12:08:29;;;;;;;6.10;3.10;;;;;;;24.45;53.93;98540.34;108688;1271;23990;-80
2022/06/13 12:11:05;;;;;;;6.10;3.70;;;;;;;24.06;54.24;98542.27;108720;1270;22560;-79
2022/06/13 12:13:39;;;;;;;6.20;3.60;;;;;;;23.65;54.28;98551.45;108762;1271;22599;-80
2022/06/13 12:16:24;;;;;;;7.50;4.60;;;;;;;23.17;54.94;98549.51;108705;1271;22554;-80
2022/06/13 12:19:10;;;;;;;9.00;5.50;;;;;;;22.93;55.23;98553.64;108699;1270;22535;-80
2022/06/13 12:21:45;;;;;;;7.70;4.60;;;;;;;22.74;55.39;98558.29;108725;1270;22562;-81
2022/06/13 12:24:21;;;;;;;5.80;3.80;;;;;;;22.61;55.46;98552.20;108699;1271;22605;-81
2022/06/13 12:27:01;;;;;;;6.60;3.50;;;;;;;22.42;55.70;98551.77;108716;1271;22550;-80
2022/06/13 12:29:48;;;;;;;11.50;6.00;;;;;;;22.30;55.66;98550.27;108737;1270;22547;-81
2022/06/13 12:32:21;;;;;;;16.20;8.20;;;;;;;21.97;56.66;98553.70;108730;1271;22592;-81
2022/06/13 12:35:15;;;;;;;11.30;6.00;;;;;;;21.78;57.01;98557.45;108680;1271;22637;-81
2022/06/13 12:37:51;;;;;;;5.90;3.40;;;;;;;21.63;56.94;98558.81;108723;1271;22540;-80
2022/06/13 12:40:35;;;;;;;4.10;2.80;;;;;;;21.44;57.19;98557.44;108704;1268;23192;-82
2022/06/13 12:43:39;;;;;;;5.10;2.70;;;;;;;21.26;57.38;98557.41;108748;1271;22553;-83
2022/06/13 12:46:18;;;;;;;4.50;3.00;;;;;;;21.07;57.59;98553.85;108636;1271;23383;-83
2022/06/13 12:49:10;;;;;;;4.00;2.80;;;;;;;20.89;57.54;98552.30;108482;1271;23309;-81
2022/06/13 12:51:37;;;;;;;3.90;2.50;;;;;;;20.70;58.03;98552.11;108483;1270;22541;-83
2022/06/13 12:54:23;;;;;;;3.30;2.50;;;;;;;20.57;58.03;98550.64;108509;1271;22544;-83
2022/06/13 12:57:11;;;;;;;4.00;2.70;;;;;;;20.51;57.83;98543.52;108496;1271;22692;-84
2022/06/13 13:00:27;;;;;;;5.20;2.80;;;;;;;20.42;58.27;98535.40;108491;1271;22540;-84
2022/06/13 13:02:57;;;;;;;4.80;2.90;;;;;;;20.34;58.14;98538.27;108353;1269;25617;-82
2022/06/13 13:05:27;;;;;;;5.10;2.70;;;;;;;20.23;58.37;98545.98;108485;1270;22554;-81
2022/06/13 13:08:05;;;;;;;3.40;2.50;;;;;;;20.07;58.63;98549.30;108464;1271;25430;-80
2022/06/13 13:10:58;;;;;;;4.50;3.00;;;;;;;19.97;58.70;98548.34;108512;1270;22537;-84
2022/06/13 13:13:39;;;;;;;7.30;3.20;;;;;;;19.87;58.63;98551.95;108523;1271;25410;-83
2022/06/13 13:16:21;;;;;;;6.60;3.00;;;;;;;19.75;59.00;98549.42;108508;1271;22568;-83
2022/06/13 13:19:15;;;;;;;4.10;2.70;;;;;;;19.67;59.60;98553.09;108476;1271;22675;-81
2022/06/13 13:22:06;;;;;;;4.00;2.80;;;;;;;19.57;60.11;98556.79;108474;1271;22541;-84
2022/06/13 13:25:09;;;;;;;7.60;2.90;;;;;;;19.43;60.22;98560.38;108512;1271;22626;-81
2022/06/13 13:28:04;;;;;;;5.40;3.00;;;;;;;19.25;60.08;98567.37;108502;1269;22505;-84
2022/06/13 13:30:38;;;;;;;3.90;2.70;;;;;;;19.05;59.96;98568.10;108250;1271;22776;-81
2022/06/13 13:33:13;;;;;;;4.80;3.00;;;;;;;18.91;60.32;98573.44;108508;1271;22579;-81
2022/06/13 13:36:02;;;;;;;4.10;2.70;;;;;;;18.71;60.41;98576.79;108806;1271;22568;-81
2022/06/13 13:38:40;;;;;;;4.10;2.70;;;;;;;18.51;60.82;98578.80;108524;1270;22549;-82
2022/06/13 13:41:18;;;;;;;4.80;2.80;;;;;;;18.36;61.05;98585.36;108456;1271;22565;-83
2022/06/13 13:43:52;;;;;;;5.10;3.00;;;;;;;18.22;61.27;98583.08;108469;1271;22562;-82
2022/06/13 13:46:27;;;;;;;6.60;3.00;;;;;;;18.10;61.36;98580.73;108462;1270;22558;-81
2022/06/13 13:49:06;;;;;;;5.30;3.00;;;;;;;18.02;61.94;98592.45;108516;1269;24612;-86
2022/06/13 13:51:40;;;;;;;5.30;3.00;;;;;;;17.89;62.87;98603.39;108490;1271;22550;-79
2022/06/13 13:54:35;;;;;;;9.40;4.20;;;;;;;17.76;64.11;98612.53;108506;1271;22553;-79
2022/06/13 13:57:24;;;;;;;4.30;3.30;;;;;;;17.62;64.24;98617.93;108478;1271;22572;-81
2022/06/13 13:59:56;;;;;;;5.90;3.10;;;;;;;17.48;64.76;98615.13;108475;1271;24555;-79
2022/06/13 14:02:47;;;;;;;4.50;3.40;;;;;;;17.38;65.73;98611.38;108500;1270;22504;-82
2022/06/13 14:05:39;;;;;;;5.60;3.40;;;;;;;17.27;65.53;98606.92;108459;1271;22607;-81
2022/06/13 14:08:36;;;;;;;4.50;2.90;;;;;;;17.17;66.60;98613.09;108461;1270;23006;-82
2022/06/13 14:11:08;;;;;;;5.30;2.90;;;;;;;17.05;67.41;98617.02;108469;1271;22650;-80
2022/06/13 14:13:41;;;;;;;4.50;3.20;;;;;;;17.00;67.92;98612.61;108576;1271;22623;-81
2022/06/13 14:16:23;;;;;;;10.30;3.60;;;;;;;16.91;67.89;98605.73;108587;1269;22612;-80
2022/06/13 14:19:16;;;;;;;5.30;3.80;;;;;;;16.80;68.45;98615.15;108582;1270;22534;-83
2022/06/13 14:21:43;;;;;;;7.10;4.10;;;;;;;16.69;68.08;98622.45;108432;1271;22584;-81
2022/06/13 14:24:14;;;;;;;7.10;3.80;;;;;;;16.61;68.76;98627.02;108572;1269;22548;-80
2022/06/13 14:26:41;;;;;;;8.50;3.50;;;;;;;16.57;69.05;98625.28;108502;1271;22530;-80
2022/06/13 14:29:28;;;;;;;7.00;3.60;;;;;;;16.54;69.62;98627.30;108506;1270;22537;-81
2022/06/13 14:32:03;;;;;;;5.60;4.10;;;;;;;16.48;70.16;98626.95;108445;1268;22662;-81
2022/06/13 14:35:11;;;;;;;6.70;3.80;;;;;;;16.43;70.78;98622.67;108597;1270;22557;-81
2022/06/13 14:37:47;;;;;;;9.00;4.10;;;;;;;16.37;71.40;98626.54;108661;1271;22544;-81
2022/06/13 14:40:14;;;;;;;6.20;4.00;;;;;;;16.34;71.49;98637.03;108649;1271;22535;-81
2022/06/13 14:42:41;;;;;;;5.70;3.50;;;;;;;16.35;71.22;98636.42;108645;1271;22630;-80
2022/06/13 14:45:39;;;;;;;6.40;3.70;;;;;;;16.32;71.24;98633.50;108591;1270;22587;-80
2022/06/13 14:48:23;;;;;;;7.00;4.40;;;;;;;16.30;71.79;98621.23;108600;1271;24052;-80
2022/06/13 14:50:56;;;;;;;8.80;4.10;;;;;;;16.23;71.85;98627.81;108672;1271;22553;-80
2022/06/13 14:53:30;;;;;;;16.30;4.30;;;;;;;16.19;72.12;98631.34;108711;1271;22619;-80
2022/06/13 14:56:09;;;;;;;9.10;4.30;;;;;;;16.19;71.95;98636.63;108705;1271;25385;-80
2022/06/13 15:01:20;;;;;;;7.80;4.60;;;;;;;16.35;72.60;98623.74;108546;1271;22609;-81
2022/06/13 15:03:59;;;;;;;9.50;5.40;;;;;;;16.54;72.74;98617.88;108742;1271;23922;-81
2022/06/13 15:06:29;;;;;;;9.10;4.70;;;;;;;16.72;73.03;98610.09;108734;1271;22589;-80
2022/06/13 15:09:27;;;;;;;9.10;4.60;;;;;;;16.92;72.71;98609.31;108685;1271;22678;-81
2022/06/13 15:12:00;;;;;;;10.00;6.20;;;;;;;17.11;72.17;98614.80;108561;1271;23185;-80
2022/06/13 15:14:38;;;;;;;8.50;5.70;;;;;;;17.21;72.52;98626.86;108631;1271;22593;-81
2022/06/13 15:17:08;;;;;;;9.60;5.50;;;;;;;17.31;72.36;98625.59;108587;1271;22546;-76
2022/06/13 15:19:38;;;;;;;10.40;5.60;;;;;;;17.38;73.01;98618.95;108529;1271;22554;-77
2022/06/13 15:22:11;;;;;;;8.50;5.00;;;;;;;17.44;73.03;98619.09;108461;1273;24238;-79
2022/06/13 15:24:45;;;;;;;9.60;5.40;;;;;;;17.44;72.80;98621.31;108446;1273;22551;-84
2022/06/13 15:27:12;;;;;;;7.50;4.90;;;;;;;17.39;72.69;98623.20;108468;1273;22547;-82
2022/06/13 15:29:39;;;;;;;9.30;4.50;;;;;;;17.36;72.74;98615.21;108526;1271;25410;-81
2022/06/13 15:32:33;;;;;;;9.40;5.00;;;;;;;17.35;71.78;98608.83;108483;1273;22538;-81
2022/06/13 15:35:06;;;;;;;7.30;4.70;;;;;;;17.39;71.55;98616.23;108553;1273;22591;-80
2022/06/13 15:37:37;;;;;;;7.50;4.40;;;;;;;17.61;71.49;98620.60;108471;1273;22553;-81
2022/06/13 15:40:05;;;;;;;7.30;4.10;;;;;;;18.40;70.82;98620.82;108585;1271;22627;-80
2022/06/13 15:42:38;;;;;;;6.70;4.00;;;;;;;18.62;70.92;98626.73;108578;1273;22522;-81
2022/06/13 15:45:10;;;;;;;;;;;;;;;18.75;70.68;98637.84;108494;1273;22602;-78
2022/06/13 15:47:38;;;;;;;8.90;4.50;;;;;;;18.76;70.64;98639.50;108339;1271;22557;-78
2022/06/13 15:50:07;;;;;;;5.90;3.80;;;;;;;18.72;70.48;98637.74;108308;1273;22747;-81
2022/06/13 15:52:38;;;;;;;6.50;3.80;;;;;;;18.65;70.09;98631.89;108339;1273;22537;-78
2022/06/13 15:55:13;;;;;;;5.00;3.40;;;;;;;18.61;69.98;98632.91;108298;1273;22548;-78
2022/06/13 15:57:48;;;;;;;5.60;3.50;;;;;;;18.57;69.81;98630.39;108332;1271;24794;-78
2022/06/13 16:00:37;;;;;;;7.50;4.40;;;;;;;18.58;70.10;98634.61;108385;1271;25236;-78
2022/06/13 16:03:15;;;;;;;8.30;4.20;;;;;;;18.61;69.74;98641.81;108332;1273;25371;-81
2022/06/13 16:05:51;;;;;;;7.10;4.30;;;;;;;18.69;69.43;98646.85;108371;1271;23427;-81
2022/06/13 16:08:19;;;;;;;7.20;4.30;;;;;;;18.70;69.46;98648.04;108391;1271;22654;-81
2022/06/13 16:10:49;;;;;;;8.40;5.00;;;;;;;18.72;69.45;98651.20;108469;1271;22715;-80
2022/06/13 16:13:27;;;;;;;7.90;4.80;;;;;;;18.72;69.47;98658.91;108481;1271;22541;-78
2022/06/13 16:15:57;;;;;;;8.90;5.40;;;;;;;18.69;69.94;98659.62;108413;1268;22589;-79
2022/06/13 16:18:41;;;;;;;8.90;5.60;;;;;;;18.69;70.10;98659.26;108406;1271;22540;-80
2022/06/13 16:21:11;;;;;;;8.30;5.50;;;;;;;18.78;69.66;98658.67;108391;1271;22548;-78
2022/06/13 16:23:51;;;;;;;7.60;5.60;;;;;;;19.08;69.04;98658.99;108394;1271;22574;-78
2022/06/13 16:26:26;;;;;;;9.90;5.70;;;;;;;18.97;68.87;98664.05;108412;1271;22552;-78
2022/06/13 16:28:55;;;;;;;8.40;5.30;;;;;;;18.88;68.94;98670.58;108400;1271;22622;-78
2022/06/13 16:31:22;;;;;;;6.80;4.70;;;;;;;18.82;69.37;98675.23;108420;1271;22593;-78
2022/06/13 16:33:54;;;;;;;8.00;5.10;;;;;;;18.75;69.55;98677.66;108379;1270;22553;-78
2022/06/13 16:36:33;;;;;;;7.20;5.10;;;;;;;18.59;69.61;98671.17;108440;1270;22546;-78
2022/06/13 16:39:03;;;;;;;7.60;4.80;;;;;;;18.36;69.64;98673.84;108426;1271;22684;-77
2022/06/13 16:41:33;;;;;;;7.50;5.30;;;;;;;18.19;69.39;98675.71;108440;1271;22540;-78
2022/06/13 16:44:14;;;;;;;8.20;5.30;;;;;;;18.02;69.55;98673.27;108419;1271;22533;-78
2022/06/13 16:46:50;;;;;;;7.10;5.00;;;;;;;17.86;69.68;98672.67;108421;1271;22591;-80
2022/06/13 16:49:38;;;;;;;6.90;4.30;;;;;;;17.75;70.51;98676.55;108390;1271;24860;-81
2022/06/13 16:52:16;;;;;;;6.90;4.30;;;;;;;17.64;70.86;98684.65;108422;1271;22550;-81
2022/06/13 16:54:54;;;;;;;6.30;4.50;;;;;;;17.54;71.25;98685.89;108641;1271;22664;-81
2022/06/13 16:57:45;;;;;;;6.70;4.50;;;;;;;17.41;71.16;98690.64;108400;1271;22548;-79
2022/06/13 17:00:24;;;;;;;7.00;5.10;;;;;;;17.29;71.01;98699.87;108401;1271;22542;-80
2022/06/13 17:03:01;;;;;;;10.50;5.20;;;;;;;17.17;70.80;98703.38;108382;1271;22722;-80
2022/06/13 17:05:39;;;;;;;8.40;4.90;;;;;;;17.09;70.64;98707.35;108429;1271;22540;-80
2022/06/13 17:08:09;;;;;;;7.80;5.00;;;;;;;17.04;71.00;98705.68;108716;1271;22608;-80
2022/06/13 17:10:48;;;;;;;7.20;4.90;;;;;;;17.03;71.39;98704.90;108854;1271;22545;-96
2022/06/13 17:13:43;;;;;;;8.40;5.40;;;;;;;16.99;71.76;98703.95;108614;1271;22547;-79
2022/06/13 17:16:11;;;;;;;11.30;5.90;;;;;;;16.91;71.74;98696.23;108833;1271;22613;-80
2022/06/13 17:18:49;;;;;;;8.30;5.30;;;;;;;16.81;72.05;98698.94;108670;1271;27512;-79
2022/06/13 17:21:20;;;;;;;10.70;5.80;;;;;;;16.71;72.04;98695.77;108508;1271;22556;-80
2022/06/13 17:23:48;;;;;;;8.50;5.50;;;;;;;16.69;72.35;98697.07;108531;1271;22698;-79
2022/06/13 17:32:08;;;;;;;9.90;5.50;;;;;;;16.58;73.15;98713.77;108543;1271;22684;-82
2022/06/13 17:34:38;;;;;;;11.40;6.30;;;;;;;16.61;72.92;98719.55;108624;1271;22566;-82
2022/06/13 17:37:06;;;;;;;8.60;6.10;;;;;;;16.60;72.81;98733.36;108516;1271;22542;-77
2022/06/13 17:39:34;;;;;;;9.70;5.40;;;;;;;16.59;73.06;98733.19;108466;1271;22547;-81
2022/06/13 17:42:02;;;;;;;8.60;6.00;;;;;;;16.60;73.49;98737.20;108513;1271;23374;-78
2022/06/13 17:44:31;;;;;;;11.80;6.50;;;;;;;16.60;73.59;98726.64;108486;1271;22548;-77
2022/06/13 17:46:59;;;;;;;9.90;6.40;;;;;;;16.65;73.51;98723.02;108405;1271;25245;-79
2022/06/13 17:49:26;;;;;;;9.80;6.60;;;;;;;16.72;73.29;98720.52;108474;1271;22884;-77
2022/06/13 17:51:53;;;;;;;10.50;6.00;;;;;;;16.76;73.06;98725.05;108496;1271;22663;-77
2022/06/13 17:54:22;;;;;;;8.40;5.70;;;;;;;16.79;73.40;98722.99;108558;1270;22571;-77
2022/06/13 17:56:51;;;;;;;11.30;5.80;;;;;;;16.79;73.77;98720.91;108476;1271;22554;-78
2022/06/13 17:59:19;;;;;;;10.00;6.10;;;;;;;16.79;73.96;98725.13;108473;1269;22547;-78
2022/06/13 18:01:47;;;;;;;10.70;6.10;;;;;;;16.79;73.72;98726.55;108472;1271;24268;-78
2022/06/13 18:04:20;;;;;;;8.10;5.90;;;;;;;16.77;73.55;98722.29;108503;1271;22642;-78
2022/06/13 18:06:52;;;;;;;8.90;5.70;;;;;;;16.74;73.36;98724.67;108478;1271;22604;-77
2022/06/13 18:09:22;;;;;;;9.90;5.80;;;;;;;16.71;73.66;98734.15;108329;1271;22673;-78
2022/06/13 18:11:49;;;;;;;13.50;5.50;;;;;;;16.62;74.08;98737.20;108500;1271;22572;-83
2022/06/13 18:14:16;;;;;;;8.40;5.70;;;;;;;16.54;74.32;98741.39;108460;1271;22704;-87
2022/06/13 18:16:45;;;;;;;9.10;5.90;;;;;;;16.41;74.27;98749.42;108425;1271;22550;-79
2022/06/13 18:19:17;;;;;;;12.90;6.70;;;;;;;16.25;74.17;98754.52;108467;1271;25336;-89
2022/06/13 18:21:44;;;;;;;10.50;7.20;;;;;;;16.11;74.16;98754.48;108461;1271;22547;-78
2022/06/13 18:24:15;;;;;;;8.80;6.80;;;;;;;16.02;74.38;98755.60;108495;1271;25557;-80
2022/06/13 18:26:44;;;;;;;9.50;6.60;;;;;;;15.94;74.79;98764.38;108472;1271;22544;-78
2022/06/13 18:29:14;;;;;;;12.80;6.60;;;;;;;15.84;75.22;98770.85;108475;1271;22580;-78
2022/06/13 18:31:42;;;;;;;12.10;7.50;;;;;;;15.76;75.52;98768.87;108449;1271;22560;-78
2022/06/13 18:34:10;;;;;;;11.20;7.80;;;;;;;15.70;75.64;98770.05;108467;1271;22581;-77
2022/06/13 18:36:38;;;;;;;12.90;8.80;;;;;;;15.65;75.50;98774.02;108487;1271;22633;-77
2022/06/13 18:39:06;;;;;;;12.90;9.40;;;;;;;15.60;75.32;98774.83;108500;1271;22576;-77
2022/06/13 18:41:35;;;;;;;12.80;9.40;;;;;;;15.58;75.85;98772.15;108495;1271;22570;-77
2022/06/13 18:44:05;;;;;;;12.50;8.70;;;;;;;15.55;76.30;98770.15;108718;1269;22562;-77
2022/06/13 18:46:36;;;;;;;16.90;10.90;;;;;;;15.53;76.58;98774.34;108444;1271;22567;-76
2022/06/13 18:49:05;;;;;;;18.80;10.60;;;;;;;15.49;76.99;98781.17;108490;1271;22663;-76
2022/06/13 18:51:33;;;;;;;16.40;11.50;;;;;;;15.42;77.14;98796.99;108464;1271;22745;-76
2022/06/13 18:54:00;;;;;;;15.10;10.80;;;;;;;15.31;76.99;98809.23;108464;1271;23304;-77
2022/06/13 18:56:28;;;;;;;13.90;10.10;;;;;;;15.27;76.91;98820.33;108440;1271;22580;-77
2022/06/13 18:58:55;;;;;;;19.80;10.90;;;;;;;15.26;77.08;98827.44;108460;1271;25507;-77
2022/06/13 19:01:24;;;;;;;17.70;10.30;;;;;;;15.27;77.30;98833.67;108499;1271;22549;-77
2022/06/13 19:04:00;;;;;;;13.00;9.40;;;;;;;15.25;77.65;98833.78;108436;1270;22677;-77
2022/06/13 19:06:29;;;;;;;18.20;10.80;;;;;;;15.23;78.04;98826.91;108464;1271;24351;-76
2022/06/13 19:08:58;;;;;;;15.20;11.30;;;;;;;15.22;77.93;98825.84;108443;1271;22539;-79
2022/06/13 19:11:25;;;;;;;15.70;11.30;;;;;;;15.21;77.86;98834.87;108501;1271;22713;-79
2022/06/13 19:13:56;;;;;;;15.10;10.80;;;;;;;15.20;77.92;98835.48;108490;1271;22710;-79
2022/06/13 19:16:24;;;;;;;18.60;12.30;;;;;;;15.21;78.11;98841.17;108441;1271;22530;-78
2022/06/13 19:18:52;;;;;;;16.20;11.90;;;;;;;15.20;78.65;98838.97;108551;1271;24268;-78
2022/06/13 19:21:19;;;;;;;17.10;11.60;;;;;;;15.20;79.01;98839.64;108487;1271;22564;-79
2022/06/13 19:23:46;;;;;;;19.70;12.80;;;;;;;15.21;79.34;98844.15;108514;1271;22840;-78
2022/06/13 19:26:16;;;;;;;20.00;14.30;;;;;;;15.18;79.51;98844.92;108503;1271;22564;-79
2022/06/13 19:28:59;;;;;;;20.40;15.30;;;;;;;15.14;79.54;98856.14;108513;1271;24269;-79
2022/06/13 19:31:34;;;;;;;18.80;13.80;;;;;;;15.08;79.31;98859.04;108468;1271;22566;-79
2022/06/13 19:34:05;;;;;;;16.60;13.70;;;;;;;15.06;79.19;98863.09;108465;1271;25389;-79
2022/06/13 19:36:32;;;;;;;15.30;11.90;;;;;;;15.08;79.34;98869.61;108498;1271;22559;-78
2022/06/13 19:39:01;;;;;;;20.30;11.60;;;;;;;15.07;79.56;98872.09;108516;1271;25640;-79
2022/06/13 19:41:33;;;;;;;13.80;9.50;;;;;;;15.03;80.00;98872.59;108362;1271;22560;-79
2022/06/13 19:44:01;;;;;;;16.60;11.30;;;;;;;14.96;80.40;98872.60;108477;1271;22748;-79
2022/06/13 19:46:28;;;;;;;17.00;10.80;;;;;;;14.93;80.28;98874.83;108483;1271;22543;-79
2022/06/13 19:48:56;;;;;;;14.30;9.90;;;;;;;14.92;80.09;98874.36;108501;1271;22547;-79
2022/06/13 19:51:23;;;;;;;17.50;10.80;;;;;;;14.89;79.82;98880.92;108516;1271;22566;-78
2022/06/13 19:53:52;;;;;;;14.40;7.70;;;;;;;14.90;79.89;98885.21;108494;1271;22610;-79
2022/06/13 19:56:23;;;;;;;8.60;5.40;;;;;;;14.87;79.64;98887.58;108464;1271;22529;-78
2022/06/13 19:58:51;;;;;;;9.50;5.90;;;;;;;14.79;79.10;98890.59;108480;1271;22552;-79
2022/06/13 20:01:20;;;;;;;11.00;6.40;;;;;;;14.74;78.53;98883.83;108470;1271;22726;-79
2022/06/13 20:03:47;;;;;;;9.90;6.80;;;;;;;14.64;77.91;98882.19;108476;1271;24047;-78
2022/06/13 20:09:00;;;;;;;15.70;10.80;;;;;;;14.52;77.62;98881.55;108424;1271;22752;-77
2022/06/13 20:11:33;;;;;;;14.50;9.30;;;;;;;14.45;78.02;98875.55;108478;1271;22537;-79
2022/06/13 20:14:04;;;;;;;10.20;7.40;;;;;;;14.38;78.38;98871.02;108542;1271;22677;-80
2022/06/13 20:16:37;;;;;;;12.50;7.40;;;;;;;14.29;78.47;98867.30;108482;1271;22566;-80
2022/06/13 20:19:27;;;;;;;12.10;6.90;;;;;;;14.21;78.15;98871.09;108506;1270;22635;-80
2022/06/13 20:21:59;;;;;;;10.40;6.90;;;;;;;14.15;77.88;98868.59;108464;1270;22539;-84
2022/06/13 20:24:26;;;;;;;12.80;9.50;;;;;;;14.12;78.00;98873.38;108540;1271;22495;-79
2022/06/13 20:26:53;;;;;;;10.70;6.30;;;;;;;14.06;78.12;98875.55;108465;1271;22606;-79
2022/06/13 20:29:20;;;;;;;17.50;8.80;;;;;;;14.00;78.58;98876.41;108514;1271;22551;-79
2022/06/13 20:31:47;;;;;;;16.80;9.20;;;;;;;13.91;78.39;98878.64;108480;1271;22556;-79
2022/06/13 20:34:37;;;;;;;13.80;8.40;;;;;;;13.83;78.08;98880.48;108486;1271;22543;-79
2022/06/13 20:37:10;;;;;;;16.40;8.10;;;;;;;13.70;78.00;98882.11;108504;1271;23539;-78
2022/06/13 20:39:41;;;;;;;12.10;7.80;;;;;;;13.60;78.16;98885.67;108357;1271;24272;-82
2022/06/13 20:42:10;;;;;;;13.50;8.20;;;;;;;13.48;78.54;98890.55;108474;1271;22640;-80
2022/06/13 20:44:43;;;;;;;12.20;8.20;;;;;;;13.38;78.78;98891.16;108457;1271;22569;-79
2022/06/13 20:47:11;;;;;;;11.50;8.10;;;;;;;13.28;78.75;98894.30;108470;1271;22567;-79
2022/06/13 20:49:45;;;;;;;12.30;8.50;;;;;;;13.20;78.68;98891.73;108509;1271;22553;-79
2022/06/13 20:52:12;;;;;;;17.30;8.70;;;;;;;13.13;78.55;98888.04;108453;1271;22526;-79
2022/06/13 20:54:40;;;;;;;10.80;7.50;;;;;;;13.08;78.59;98884.14;108498;1269;22563;-80
2022/06/13 20:57:08;;;;;;;16.00;8.20;;;;;;;13.04;79.07;98882.56;108655;1270;22823;-79
2022/06/13 20:59:35;;;;;;;14.00;8.40;;;;;;;12.99;79.30;98886.89;108463;1271;22554;-79
2022/06/13 21:02:10;;;;;;;16.50;9.30;;;;;;;12.95;79.47;98883.39;108480;1271;22547;-79
2022/06/13 21:04:44;;;;;;;12.00;9.10;;;;;;;12.87;79.30;98884.84;108509;1270;22550;-79
2022/06/13 21:07:11;;;;;;;19.30;10.40;;;;;;;12.79;79.03;98890.95;108503;1271;25416;-79
2022/06/13 21:12:24;;;;;;;18.90;9.60;;;;;;;12.69;78.93;98890.76;108471;1271;22638;-79
2022/06/13 21:14:51;;;;;;;12.30;9.50;;;;;;;12.67;79.37;98894.27;108450;1271;22710;-79
2022/06/13 21:17:19;;;;;;;14.00;10.40;;;;;;;12.64;79.72;98889.77;108513;1271;22530;-79
2022/06/13 21:19:46;;;;;;;15.60;10.10;;;;;;;12.58;79.97;98888.92;108482;1271;22522;-79
2022/06/13 21:22:13;;;;;;;16.00;12.00;;;;;;;12.56;79.58;98888.55;108143;1271;431587;-79
2022/06/13 21:24:40;;;;;;;16.10;12.50;;;;;;;12.53;79.64;98888.27;108482;1271;22550;-78
2022/06/13 21:27:08;;;;;;;18.80;13.20;;;;;;;12.52;79.50;98890.55;108459;1271;26249;-79
2022/06/13 21:29:38;;;;;;;15.10;12.50;;;;;;;12.51;80.02;98889.14;108529;1271;22537;-79
2022/06/13 21:32:08;;;;;;;15.70;13.00;;;;;;;12.46;80.20;98888.56;108474;1271;22541;-79
2022/06/13 21:34:35;;;;;;;19.90;14.10;;;;;;;12.38;80.11;98890.11;108346;1271;22558;-79
2022/06/13 21:37:02;;;;;;;16.50;13.00;;;;;;;12.30;80.02;98883.50;108479;1271;24092;-79